sensor_id;sensor_type;location;lat;lon;timestamp;P1;durP1;ratioP1;P2;durP2;ratioP2
211;SDS011;16228;48.800;9.002;2022-10-14T00:01:38;10.77;;;9.00;;
211;SDS011;16228;48.800;9.002;2022-10-14T00:04:05;12.53;;;10.10;;
211;SDS011;16228;48.800;9.002;2022-10-14T00:06:33;15.60;;;8.70;;
211;SDS011;16228;48.800;9.002;2022-10-14T00:09:01;11.53;;;9.90;;
211;SDS011;16228;48.800;9.002;2022-10-14T00:11:31;14.03;;;11.80;;
211;SDS011;16228;48.800;9.002;2022-10-14T00:13:59;16.80;;;10.60;;
211;SDS011;16228;48.800;9.002;2022-10-14T00:16:28;9.60;;;8.57;;
211;SDS011;16228;48.800;9.002;2022-10-14T00:18:59;12.23;;;10.87;;
211;SDS011;16228;48.800;9.002;2022-10-14T00:21:26;11.13;;;9.97;;
211;SDS011;16228;48.800;9.002;2022-10-14T00:23:54;12.67;;;10.10;;
211;SDS011;16228;48.800;9.002;2022-10-14T00:26:23;12.83;;;11.10;;
211;SDS011;16228;48.800;9.002;2022-10-14T00:28:51;9.67;;;8.77;;
211;SDS011;16228;48.800;9.002;2022-10-14T00:31:19;11.90;;;9.67;;
211;SDS011;16228;48.800;9.002;2022-10-14T00:33:46;11.00;;;9.37;;
211;SDS011;16228;48.800;9.002;2022-10-14T00:36:15;10.90;;;9.33;;
211;SDS011;16228;48.800;9.002;2022-10-14T00:38:44;12.87;;;10.77;;
211;SDS011;16228;48.800;9.002;2022-10-14T00:41:12;14.80;;;12.53;;
211;SDS011;16228;48.800;9.002;2022-10-14T00:43:52;15.67;;;11.40;;
211;SDS011;16228;48.800;9.002;2022-10-14T00:46:22;10.13;;;8.70;;
211;SDS011;16228;48.800;9.002;2022-10-14T00:48:50;11.40;;;8.90;;
211;SDS011;16228;48.800;9.002;2022-10-14T00:51:18;15.03;;;11.57;;
211;SDS011;16228;48.800;9.002;2022-10-14T00:53:46;8.43;;;7.73;;
211;SDS011;16228;48.800;9.002;2022-10-14T00:56:14;10.53;;;7.70;;
211;SDS011;16228;48.800;9.002;2022-10-14T00:58:44;10.33;;;7.07;;
211;SDS011;16228;48.800;9.002;2022-10-14T01:01:12;8.87;;;7.80;;
211;SDS011;16228;48.800;9.002;2022-10-14T01:03:39;9.33;;;8.33;;
211;SDS011;16228;48.800;9.002;2022-10-14T01:06:08;9.73;;;8.77;;
211;SDS011;16228;48.800;9.002;2022-10-14T01:08:48;10.37;;;8.93;;
211;SDS011;16228;48.800;9.002;2022-10-14T01:11:24;9.90;;;8.90;;
211;SDS011;16228;48.800;9.002;2022-10-14T01:14:01;12.07;;;9.80;;
211;SDS011;16228;48.800;9.002;2022-10-14T01:16:34;10.33;;;8.30;;
211;SDS011;16228;48.800;9.002;2022-10-14T01:19:15;11.83;;;9.30;;
211;SDS011;16228;48.800;9.002;2022-10-14T01:22:13;9.70;;;8.70;;
211;SDS011;16228;48.800;9.002;2022-10-14T01:24:52;11.70;;;10.00;;
211;SDS011;16228;48.800;9.002;2022-10-14T01:30:30;9.87;;;8.33;;
211;SDS011;16228;48.800;9.002;2022-10-14T01:33:05;8.17;;;7.43;;
211;SDS011;16228;48.800;9.002;2022-10-14T01:35:40;10.57;;;8.43;;
211;SDS011;16228;48.800;9.002;2022-10-14T01:38:14;11.87;;;8.93;;
211;SDS011;16228;48.800;9.002;2022-10-14T01:40:45;8.87;;;7.20;;
211;SDS011;16228;48.800;9.002;2022-10-14T01:43:17;10.33;;;9.33;;
211;SDS011;16228;48.800;9.002;2022-10-14T01:45:48;10.43;;;9.30;;
211;SDS011;16228;48.800;9.002;2022-10-14T01:48:17;9.53;;;8.53;;
211;SDS011;16228;48.800;9.002;2022-10-14T01:50:48;10.33;;;8.27;;
211;SDS011;16228;48.800;9.002;2022-10-14T01:53:18;7.73;;;6.93;;
211;SDS011;16228;48.800;9.002;2022-10-14T01:55:49;11.83;;;8.87;;
211;SDS011;16228;48.800;9.002;2022-10-14T01:58:20;13.83;;;8.50;;
211;SDS011;16228;48.800;9.002;2022-10-14T02:00:51;9.27;;;8.10;;
211;SDS011;16228;48.800;9.002;2022-10-14T02:03:18;11.83;;;8.87;;
211;SDS011;16228;48.800;9.002;2022-10-14T02:05:46;11.00;;;9.30;;
211;SDS011;16228;48.800;9.002;2022-10-14T02:08:18;10.23;;;9.07;;
211;SDS011;16228;48.800;9.002;2022-10-14T02:10:55;11.63;;;9.87;;
211;SDS011;16228;48.800;9.002;2022-10-14T02:13:38;7.97;;;7.17;;
211;SDS011;16228;48.800;9.002;2022-10-14T02:16:18;13.50;;;10.33;;
211;SDS011;16228;48.800;9.002;2022-10-14T02:18:52;9.53;;;8.13;;
211;SDS011;16228;48.800;9.002;2022-10-14T02:21:27;15.63;;;11.43;;
211;SDS011;16228;48.800;9.002;2022-10-14T02:24:00;10.27;;;7.73;;
211;SDS011;16228;48.800;9.002;2022-10-14T02:26:32;9.73;;;8.17;;
211;SDS011;16228;48.800;9.002;2022-10-14T02:29:01;9.37;;;7.43;;
211;SDS011;16228;48.800;9.002;2022-10-14T02:31:31;9.77;;;8.73;;
211;SDS011;16228;48.800;9.002;2022-10-14T02:34:02;12.87;;;9.60;;
211;SDS011;16228;48.800;9.002;2022-10-14T02:36:32;10.60;;;7.97;;
211;SDS011;16228;48.800;9.002;2022-10-14T02:39:01;7.63;;;6.57;;
211;SDS011;16228;48.800;9.002;2022-10-14T02:41:31;8.67;;;7.17;;
211;SDS011;16228;48.800;9.002;2022-10-14T02:44:00;9.33;;;8.40;;
211;SDS011;16228;48.800;9.002;2022-10-14T02:46:30;10.70;;;7.47;;
211;SDS011;16228;48.800;9.002;2022-10-14T02:48:59;11.30;;;9.37;;
211;SDS011;16228;48.800;9.002;2022-10-14T02:51:26;7.27;;;5.73;;
211;SDS011;16228;48.800;9.002;2022-10-14T02:53:53;8.53;;;7.63;;
211;SDS011;16228;48.800;9.002;2022-10-14T02:56:21;9.50;;;7.13;;
211;SDS011;16228;48.800;9.002;2022-10-14T02:58:49;10.03;;;8.77;;
211;SDS011;16228;48.800;9.002;2022-10-14T03:01:16;7.23;;;6.53;;
211;SDS011;16228;48.800;9.002;2022-10-14T03:03:44;9.77;;;7.53;;
211;SDS011;16228;48.800;9.002;2022-10-14T03:06:11;12.83;;;8.37;;
211;SDS011;16228;48.800;9.002;2022-10-14T03:08:38;6.87;;;6.17;;
211;SDS011;16228;48.800;9.002;2022-10-14T03:11:05;10.80;;;7.47;;
211;SDS011;16228;48.800;9.002;2022-10-14T03:13:32;9.10;;;7.20;;
211;SDS011;16228;48.800;9.002;2022-10-14T03:15:59;8.97;;;7.57;;
211;SDS011;16228;48.800;9.002;2022-10-14T03:18:26;8.97;;;6.87;;
211;SDS011;16228;48.800;9.002;2022-10-14T03:20:55;7.90;;;5.57;;
211;SDS011;16228;48.800;9.002;2022-10-14T03:23:22;9.70;;;8.23;;
211;SDS011;16228;48.800;9.002;2022-10-14T03:25:49;13.43;;;9.07;;
211;SDS011;16228;48.800;9.002;2022-10-14T03:28:16;11.73;;;8.47;;
211;SDS011;16228;48.800;9.002;2022-10-14T03:30:43;11.37;;;8.03;;
211;SDS011;16228;48.800;9.002;2022-10-14T03:33:10;7.13;;;6.00;;
211;SDS011;16228;48.800;9.002;2022-10-14T03:35:37;10.57;;;7.50;;
211;SDS011;16228;48.800;9.002;2022-10-14T03:38:05;8.23;;;7.43;;
211;SDS011;16228;48.800;9.002;2022-10-14T03:40:32;12.67;;;9.77;;
211;SDS011;16228;48.800;9.002;2022-10-14T03:42:59;13.67;;;9.63;;
211;SDS011;16228;48.800;9.002;2022-10-14T03:45:26;11.00;;;9.90;;
211;SDS011;16228;48.800;9.002;2022-10-14T03:47:54;14.03;;;9.80;;
211;SDS011;16228;48.800;9.002;2022-10-14T03:50:21;18.53;;;12.73;;
211;SDS011;16228;48.800;9.002;2022-10-14T03:52:48;17.20;;;12.77;;
211;SDS011;16228;48.800;9.002;2022-10-14T03:55:16;16.17;;;12.27;;
211;SDS011;16228;48.800;9.002;2022-10-14T03:57:44;12.30;;;10.97;;
211;SDS011;16228;48.800;9.002;2022-10-14T04:00:11;10.10;;;9.10;;
211;SDS011;16228;48.800;9.002;2022-10-14T04:02:38;18.03;;;8.90;;
211;SDS011;16228;48.800;9.002;2022-10-14T04:05:06;10.10;;;8.43;;
211;SDS011;16228;48.800;9.002;2022-10-14T04:07:33;8.97;;;7.93;;
211;SDS011;16228;48.800;9.002;2022-10-14T04:10:00;14.77;;;10.23;;
211;SDS011;16228;48.800;9.002;2022-10-14T04:12:29;10.90;;;9.17;;
211;SDS011;16228;48.800;9.002;2022-10-14T04:14:56;12.70;;;8.77;;
211;SDS011;16228;48.800;9.002;2022-10-14T04:17:23;9.60;;;8.67;;
211;SDS011;16228;48.800;9.002;2022-10-14T04:19:51;12.33;;;9.97;;
211;SDS011;16228;48.800;9.002;2022-10-14T04:22:18;15.20;;;11.03;;
211;SDS011;16228;48.800;9.002;2022-10-14T04:24:47;14.07;;;10.57;;
211;SDS011;16228;48.800;9.002;2022-10-14T04:27:14;10.47;;;9.40;;
211;SDS011;16228;48.800;9.002;2022-10-14T04:29:42;9.67;;;8.70;;
211;SDS011;16228;48.800;9.002;2022-10-14T04:32:10;10.53;;;8.83;;
211;SDS011;16228;48.800;9.002;2022-10-14T04:34:37;10.60;;;8.73;;
211;SDS011;16228;48.800;9.002;2022-10-14T04:37:04;15.53;;;12.07;;
211;SDS011;16228;48.800;9.002;2022-10-14T04:39:31;9.30;;;7.17;;
211;SDS011;16228;48.800;9.002;2022-10-14T04:41:58;8.50;;;7.60;;
211;SDS011;16228;48.800;9.002;2022-10-14T04:44:25;13.70;;;11.60;;
211;SDS011;16228;48.800;9.002;2022-10-14T04:46:53;8.37;;;7.57;;
211;SDS011;16228;48.800;9.002;2022-10-14T04:49:20;9.67;;;8.00;;
211;SDS011;16228;48.800;9.002;2022-10-14T04:51:48;10.30;;;9.30;;
211;SDS011;16228;48.800;9.002;2022-10-14T04:54:15;8.10;;;7.30;;
211;SDS011;16228;48.800;9.002;2022-10-14T04:56:42;12.40;;;10.10;;
211;SDS011;16228;48.800;9.002;2022-10-14T04:59:09;10.80;;;8.83;;
211;SDS011;16228;48.800;9.002;2022-10-14T05:01:36;10.93;;;9.07;;
211;SDS011;16228;48.800;9.002;2022-10-14T05:04:04;14.30;;;10.07;;
211;SDS011;16228;48.800;9.002;2022-10-14T05:06:31;11.73;;;10.00;;
211;SDS011;16228;48.800;9.002;2022-10-14T05:08:58;11.83;;;10.63;;
211;SDS011;16228;48.800;9.002;2022-10-14T05:11:25;10.77;;;9.60;;
211;SDS011;16228;48.800;9.002;2022-10-14T05:13:52;9.37;;;8.27;;
211;SDS011;16228;48.800;9.002;2022-10-14T05:16:19;10.30;;;8.97;;
211;SDS011;16228;48.800;9.002;2022-10-14T05:18:46;12.57;;;10.10;;
211;SDS011;16228;48.800;9.002;2022-10-14T05:21:16;10.03;;;8.97;;
211;SDS011;16228;48.800;9.002;2022-10-14T05:23:43;12.43;;;10.90;;
211;SDS011;16228;48.800;9.002;2022-10-14T05:26:10;13.03;;;10.77;;
211;SDS011;16228;48.800;9.002;2022-10-14T05:28:37;10.03;;;8.17;;
211;SDS011;16228;48.800;9.002;2022-10-14T05:31:04;11.57;;;9.47;;
211;SDS011;16228;48.800;9.002;2022-10-14T05:33:31;13.00;;;11.23;;
211;SDS011;16228;48.800;9.002;2022-10-14T05:35:58;10.00;;;8.77;;
211;SDS011;16228;48.800;9.002;2022-10-14T05:38:27;14.93;;;11.37;;
211;SDS011;16228;48.800;9.002;2022-10-14T05:40:57;10.23;;;9.23;;
211;SDS011;16228;48.800;9.002;2022-10-14T05:43:24;9.73;;;7.93;;
211;SDS011;16228;48.800;9.002;2022-10-14T05:45:51;10.80;;;9.80;;
211;SDS011;16228;48.800;9.002;2022-10-14T05:48:18;9.87;;;8.27;;
211;SDS011;16228;48.800;9.002;2022-10-14T05:50:45;11.37;;;8.57;;
211;SDS011;16228;48.800;9.002;2022-10-14T05:53:12;8.13;;;7.33;;
211;SDS011;16228;48.800;9.002;2022-10-14T05:55:41;9.47;;;8.47;;
211;SDS011;16228;48.800;9.002;2022-10-14T05:58:08;9.33;;;8.40;;
211;SDS011;16228;48.800;9.002;2022-10-14T06:00:35;10.83;;;7.90;;
211;SDS011;16228;48.800;9.002;2022-10-14T06:03:02;9.70;;;8.10;;
211;SDS011;16228;48.800;9.002;2022-10-14T06:05:29;9.63;;;8.43;;
211;SDS011;16228;48.800;9.002;2022-10-14T06:07:56;11.57;;;9.13;;
211;SDS011;16228;48.800;9.002;2022-10-14T06:10:23;8.83;;;7.93;;
211;SDS011;16228;48.800;9.002;2022-10-14T06:12:51;11.00;;;8.27;;
211;SDS011;16228;48.800;9.002;2022-10-14T06:15:18;12.60;;;9.20;;
211;SDS011;16228;48.800;9.002;2022-10-14T06:17:45;7.80;;;7.10;;
211;SDS011;16228;48.800;9.002;2022-10-14T06:20:12;7.97;;;7.20;;
211;SDS011;16228;48.800;9.002;2022-10-14T06:22:39;8.93;;;7.87;;
211;SDS011;16228;48.800;9.002;2022-10-14T06:25:06;10.03;;;8.20;;
211;SDS011;16228;48.800;9.002;2022-10-14T06:27:34;8.40;;;7.60;;
211;SDS011;16228;48.800;9.002;2022-10-14T06:30:03;11.17;;;7.67;;
211;SDS011;16228;48.800;9.002;2022-10-14T06:32:30;10.80;;;9.03;;
211;SDS011;16228;48.800;9.002;2022-10-14T06:34:57;11.53;;;8.73;;
211;SDS011;16228;48.800;9.002;2022-10-14T06:37:24;9.13;;;7.97;;
211;SDS011;16228;48.800;9.002;2022-10-14T06:39:51;8.90;;;8.00;;
211;SDS011;16228;48.800;9.002;2022-10-14T06:42:18;8.20;;;6.50;;
211;SDS011;16228;48.800;9.002;2022-10-14T06:44:45;10.17;;;6.87;;
211;SDS011;16228;48.800;9.002;2022-10-14T06:47:14;10.13;;;7.87;;
211;SDS011;16228;48.800;9.002;2022-10-14T06:49:41;10.40;;;6.43;;
211;SDS011;16228;48.800;9.002;2022-10-14T06:52:08;8.20;;;6.23;;
211;SDS011;16228;48.800;9.002;2022-10-14T06:54:35;9.67;;;7.53;;
211;SDS011;16228;48.800;9.002;2022-10-14T06:57:02;8.93;;;6.60;;
211;SDS011;16228;48.800;9.002;2022-10-14T06:59:29;8.47;;;6.63;;
211;SDS011;16228;48.800;9.002;2022-10-14T07:01:56;9.90;;;7.13;;
211;SDS011;16228;48.800;9.002;2022-10-14T07:04:24;8.23;;;7.00;;
211;SDS011;16228;48.800;9.002;2022-10-14T07:06:51;10.70;;;7.40;;
211;SDS011;16228;48.800;9.002;2022-10-14T07:09:19;9.57;;;7.57;;
211;SDS011;16228;48.800;9.002;2022-10-14T07:11:46;12.40;;;7.87;;
211;SDS011;16228;48.800;9.002;2022-10-14T07:14:13;5.87;;;5.27;;
211;SDS011;16228;48.800;9.002;2022-10-14T07:16:41;9.20;;;6.97;;
211;SDS011;16228;48.800;9.002;2022-10-14T07:19:08;10.97;;;7.57;;
211;SDS011;16228;48.800;9.002;2022-10-14T07:21:36;7.33;;;6.27;;
211;SDS011;16228;48.800;9.002;2022-10-14T07:24:04;11.73;;;6.03;;
211;SDS011;16228;48.800;9.002;2022-10-14T07:26:31;7.07;;;5.57;;
211;SDS011;16228;48.800;9.002;2022-10-14T07:28:58;5.23;;;4.63;;
211;SDS011;16228;48.800;9.002;2022-10-14T07:31:25;7.27;;;5.53;;
211;SDS011;16228;48.800;9.002;2022-10-14T07:33:54;6.97;;;5.53;;
211;SDS011;16228;48.800;9.002;2022-10-14T07:36:21;6.20;;;5.60;;
211;SDS011;16228;48.800;9.002;2022-10-14T07:38:50;7.17;;;6.47;;
211;SDS011;16228;48.800;9.002;2022-10-14T07:41:17;5.43;;;4.83;;
211;SDS011;16228;48.800;9.002;2022-10-14T07:43:47;8.23;;;5.10;;
211;SDS011;16228;48.800;9.002;2022-10-14T07:46:15;7.50;;;5.73;;
211;SDS011;16228;48.800;9.002;2022-10-14T07:48:52;5.77;;;5.00;;
211;SDS011;16228;48.800;9.002;2022-10-14T07:51:19;7.73;;;5.67;;
211;SDS011;16228;48.800;9.002;2022-10-14T07:53:47;5.30;;;4.40;;
211;SDS011;16228;48.800;9.002;2022-10-14T07:56:15;9.30;;;5.73;;
211;SDS011;16228;48.800;9.002;2022-10-14T07:58:42;8.87;;;5.10;;
211;SDS011;16228;48.800;9.002;2022-10-14T08:01:10;8.03;;;4.90;;
211;SDS011;16228;48.800;9.002;2022-10-14T08:03:39;6.33;;;5.40;;
211;SDS011;16228;48.800;9.002;2022-10-14T08:06:06;7.40;;;4.37;;
211;SDS011;16228;48.800;9.002;2022-10-14T08:08:33;5.50;;;4.20;;
211;SDS011;16228;48.800;9.002;2022-10-14T08:11:01;6.70;;;5.10;;
211;SDS011;16228;48.800;9.002;2022-10-14T08:13:31;5.63;;;4.60;;
211;SDS011;16228;48.800;9.002;2022-10-14T08:15:58;6.77;;;4.93;;
211;SDS011;16228;48.800;9.002;2022-10-14T08:18:25;5.87;;;4.27;;
211;SDS011;16228;48.800;9.002;2022-10-14T08:20:53;6.10;;;3.77;;
211;SDS011;16228;48.800;9.002;2022-10-14T08:23:20;4.20;;;3.63;;
211;SDS011;16228;48.800;9.002;2022-10-14T08:25:47;5.53;;;4.97;;
211;SDS011;16228;48.800;9.002;2022-10-14T08:28:15;7.87;;;4.03;;
211;SDS011;16228;48.800;9.002;2022-10-14T08:30:43;5.37;;;3.80;;
211;SDS011;16228;48.800;9.002;2022-10-14T08:33:12;4.83;;;4.23;;
211;SDS011;16228;48.800;9.002;2022-10-14T08:35:39;6.97;;;4.60;;
211;SDS011;16228;48.800;9.002;2022-10-14T08:38:06;4.87;;;3.43;;
211;SDS011;16228;48.800;9.002;2022-10-14T08:40:40;5.87;;;4.27;;
211;SDS011;16228;48.800;9.002;2022-10-14T08:43:20;4.73;;;4.07;;
211;SDS011;16228;48.800;9.002;2022-10-14T08:45:54;4.87;;;3.87;;
211;SDS011;16228;48.800;9.002;2022-10-14T08:48:27;8.70;;;4.43;;
211;SDS011;16228;48.800;9.002;2022-10-14T08:50:57;5.63;;;4.70;;
211;SDS011;16228;48.800;9.002;2022-10-14T08:53:31;7.27;;;4.43;;
211;SDS011;16228;48.800;9.002;2022-10-14T08:56:02;6.43;;;5.00;;
211;SDS011;16228;48.800;9.002;2022-10-14T08:58:32;4.83;;;4.33;;
211;SDS011;16228;48.800;9.002;2022-10-14T09:01:09;6.20;;;4.83;;
211;SDS011;16228;48.800;9.002;2022-10-14T09:03:40;7.47;;;4.47;;
211;SDS011;16228;48.800;9.002;2022-10-14T09:06:10;4.63;;;4.17;;
211;SDS011;16228;48.800;9.002;2022-10-14T09:08:42;4.50;;;4.10;;
211;SDS011;16228;48.800;9.002;2022-10-14T09:11:13;7.00;;;4.20;;
211;SDS011;16228;48.800;9.002;2022-10-14T09:13:43;6.23;;;4.40;;
211;SDS011;16228;48.800;9.002;2022-10-14T09:16:16;4.30;;;3.90;;
211;SDS011;16228;48.800;9.002;2022-10-14T09:18:46;4.50;;;4.10;;
211;SDS011;16228;48.800;9.002;2022-10-14T09:21:25;6.93;;;3.40;;
211;SDS011;16228;48.800;9.002;2022-10-14T09:23:59;5.70;;;3.70;;
211;SDS011;16228;48.800;9.002;2022-10-14T09:26:34;8.03;;;3.40;;
211;SDS011;16228;48.800;9.002;2022-10-14T09:29:05;5.70;;;3.37;;
211;SDS011;16228;48.800;9.002;2022-10-14T09:31:43;3.50;;;3.20;;
211;SDS011;16228;48.800;9.002;2022-10-14T09:34:11;4.30;;;3.57;;
211;SDS011;16228;48.800;9.002;2022-10-14T09:36:44;3.93;;;3.23;;
211;SDS011;16228;48.800;9.002;2022-10-14T09:39:14;6.37;;;3.53;;
211;SDS011;16228;48.800;9.002;2022-10-14T09:41:42;7.13;;;4.23;;
211;SDS011;16228;48.800;9.002;2022-10-14T09:44:15;6.60;;;3.97;;
211;SDS011;16228;48.800;9.002;2022-10-14T09:46:51;4.83;;;3.67;;
211;SDS011;16228;48.800;9.002;2022-10-14T09:49:25;7.03;;;3.73;;
211;SDS011;16228;48.800;9.002;2022-10-14T09:51:59;8.87;;;4.20;;
211;SDS011;16228;48.800;9.002;2022-10-14T09:54:28;5.13;;;3.80;;
211;SDS011;16228;48.800;9.002;2022-10-14T09:56:58;5.60;;;3.27;;
211;SDS011;16228;48.800;9.002;2022-10-14T09:59:29;4.80;;;4.23;;
211;SDS011;16228;48.800;9.002;2022-10-14T10:01:59;5.23;;;3.67;;
211;SDS011;16228;48.800;9.002;2022-10-14T10:04:33;4.30;;;3.20;;
211;SDS011;16228;48.800;9.002;2022-10-14T10:07:02;3.53;;;3.20;;
211;SDS011;16228;48.800;9.002;2022-10-14T10:09:31;5.00;;;4.40;;
211;SDS011;16228;48.800;9.002;2022-10-14T10:11:59;5.70;;;4.13;;
211;SDS011;16228;48.800;9.002;2022-10-14T10:14:50;5.63;;;3.53;;
211;SDS011;16228;48.800;9.002;2022-10-14T10:17:24;5.90;;;4.63;;
211;SDS011;16228;48.800;9.002;2022-10-14T10:20:05;6.23;;;3.97;;
211;SDS011;16228;48.800;9.002;2022-10-14T10:22:36;4.13;;;3.40;;
211;SDS011;16228;48.800;9.002;2022-10-14T10:25:17;8.10;;;4.40;;
211;SDS011;16228;48.800;9.002;2022-10-14T10:27:51;4.37;;;3.07;;
211;SDS011;16228;48.800;9.002;2022-10-14T10:30:22;7.53;;;4.10;;
211;SDS011;16228;48.800;9.002;2022-10-14T10:35:53;6.83;;;4.83;;
211;SDS011;16228;48.800;9.002;2022-10-14T10:38:29;8.00;;;4.40;;
211;SDS011;16228;48.800;9.002;2022-10-14T10:41:04;5.20;;;3.77;;
211;SDS011;16228;48.800;9.002;2022-10-14T10:43:47;6.07;;;3.80;;
211;SDS011;16228;48.800;9.002;2022-10-14T10:46:38;5.47;;;4.00;;
211;SDS011;16228;48.800;9.002;2022-10-14T10:49:34;5.17;;;3.67;;
211;SDS011;16228;48.800;9.002;2022-10-14T10:52:17;5.23;;;3.57;;
211;SDS011;16228;48.800;9.002;2022-10-14T10:54:56;4.73;;;3.70;;
211;SDS011;16228;48.800;9.002;2022-10-14T10:57:34;4.00;;;3.40;;
211;SDS011;16228;48.800;9.002;2022-10-14T11:00:13;4.83;;;4.17;;
211;SDS011;16228;48.800;9.002;2022-10-14T11:05:42;6.40;;;4.80;;
211;SDS011;16228;48.800;9.002;2022-10-14T11:08:23;4.93;;;3.70;;
211;SDS011;16228;48.800;9.002;2022-10-14T11:11:31;10.43;;;6.33;;
211;SDS011;16228;48.800;9.002;2022-10-14T11:14:24;4.87;;;4.23;;
211;SDS011;16228;48.800;9.002;2022-10-14T11:17:00;5.27;;;3.97;;
211;SDS011;16228;48.800;9.002;2022-10-14T11:19:33;6.53;;;4.63;;
211;SDS011;16228;48.800;9.002;2022-10-14T11:22:09;6.50;;;4.57;;
211;SDS011;16228;48.800;9.002;2022-10-14T11:24:47;5.77;;;4.00;;
211;SDS011;16228;48.800;9.002;2022-10-14T11:27:27;6.03;;;4.37;;
211;SDS011;16228;48.800;9.002;2022-10-14T11:32:48;6.27;;;3.83;;
211;SDS011;16228;48.800;9.002;2022-10-14T11:35:30;7.53;;;3.80;;
211;SDS011;16228;48.800;9.002;2022-10-14T11:38:14;4.57;;;4.00;;
211;SDS011;16228;48.800;9.002;2022-10-14T11:41:05;4.13;;;3.67;;
211;SDS011;16228;48.800;9.002;2022-10-14T11:43:40;4.03;;;3.73;;
211;SDS011;16228;48.800;9.002;2022-10-14T11:46:17;6.27;;;3.90;;
211;SDS011;16228;48.800;9.002;2022-10-14T11:48:47;7.20;;;3.60;;
211;SDS011;16228;48.800;9.002;2022-10-14T11:51:19;7.73;;;3.50;;
211;SDS011;16228;48.800;9.002;2022-10-14T11:54:01;6.23;;;3.23;;
211;SDS011;16228;48.800;9.002;2022-10-14T11:56:33;5.47;;;3.33;;
211;SDS011;16228;48.800;9.002;2022-10-14T11:59:12;5.40;;;2.93;;
211;SDS011;16228;48.800;9.002;2022-10-14T12:01:47;4.10;;;3.00;;
211;SDS011;16228;48.800;9.002;2022-10-14T12:04:18;3.57;;;2.87;;
211;SDS011;16228;48.800;9.002;2022-10-14T12:06:51;4.00;;;2.73;;
211;SDS011;16228;48.800;9.002;2022-10-14T12:09:26;4.10;;;2.43;;
211;SDS011;16228;48.800;9.002;2022-10-14T12:12:02;4.00;;;2.67;;
211;SDS011;16228;48.800;9.002;2022-10-14T12:14:32;4.93;;;2.50;;
211;SDS011;16228;48.800;9.002;2022-10-14T12:17:02;2.47;;;2.17;;
211;SDS011;16228;48.800;9.002;2022-10-14T12:19:31;5.80;;;2.20;;
211;SDS011;16228;48.800;9.002;2022-10-14T12:22:01;4.60;;;2.50;;
211;SDS011;16228;48.800;9.002;2022-10-14T12:24:37;3.33;;;2.20;;
211;SDS011;16228;48.800;9.002;2022-10-14T12:27:08;5.13;;;1.90;;
211;SDS011;16228;48.800;9.002;2022-10-14T12:29:40;1.90;;;1.80;;
211;SDS011;16228;48.800;9.002;2022-10-14T12:32:16;2.30;;;2.07;;
211;SDS011;16228;48.800;9.002;2022-10-14T12:34:46;3.57;;;2.10;;
211;SDS011;16228;48.800;9.002;2022-10-14T12:40:21;4.13;;;1.60;;
211;SDS011;16228;48.800;9.002;2022-10-14T12:43:02;2.50;;;1.80;;
211;SDS011;16228;48.800;9.002;2022-10-14T12:45:39;2.50;;;2.20;;
211;SDS011;16228;48.800;9.002;2022-10-14T12:48:15;3.97;;;1.77;;
211;SDS011;16228;48.800;9.002;2022-10-14T12:50:45;2.47;;;1.70;;
211;SDS011;16228;48.800;9.002;2022-10-14T12:53:15;1.70;;;1.60;;
211;SDS011;16228;48.800;9.002;2022-10-14T12:55:51;3.27;;;1.57;;
211;SDS011;16228;48.800;9.002;2022-10-14T12:58:22;1.30;;;1.03;;
211;SDS011;16228;48.800;9.002;2022-10-14T13:00:53;1.10;;;0.93;;
211;SDS011;16228;48.800;9.002;2022-10-14T13:03:23;1.30;;;1.17;;
211;SDS011;16228;48.800;9.002;2022-10-14T13:05:52;2.70;;;1.40;;
211;SDS011;16228;48.800;9.002;2022-10-14T13:08:40;1.43;;;1.10;;
211;SDS011;16228;48.800;9.002;2022-10-14T13:11:09;1.30;;;1.20;;
211;SDS011;16228;48.800;9.002;2022-10-14T13:13:47;1.83;;;1.50;;
211;SDS011;16228;48.800;9.002;2022-10-14T13:19:38;1.20;;;1.00;;
211;SDS011;16228;48.800;9.002;2022-10-14T13:25:11;1.23;;;0.80;;
211;SDS011;16228;48.800;9.002;2022-10-14T13:27:54;1.50;;;0.90;;
211;SDS011;16228;48.800;9.002;2022-10-14T13:30:32;1.47;;;0.90;;
211;SDS011;16228;48.800;9.002;2022-10-14T13:33:03;1.23;;;0.70;;
211;SDS011;16228;48.800;9.002;2022-10-14T13:35:46;1.37;;;0.97;;
211;SDS011;16228;48.800;9.002;2022-10-14T13:38:19;2.30;;;1.00;;
211;SDS011;16228;48.800;9.002;2022-10-14T13:40:48;1.27;;;1.17;;
211;SDS011;16228;48.800;9.002;2022-10-14T13:43:19;1.63;;;1.10;;
211;SDS011;16228;48.800;9.002;2022-10-14T13:45:52;1.90;;;0.80;;
211;SDS011;16228;48.800;9.002;2022-10-14T13:48:26;0.80;;;0.80;;
211;SDS011;16228;48.800;9.002;2022-10-14T13:51:02;1.00;;;0.90;;
211;SDS011;16228;48.800;9.002;2022-10-14T13:53:48;1.33;;;1.10;;
211;SDS011;16228;48.800;9.002;2022-10-14T13:56:18;2.50;;;1.10;;
211;SDS011;16228;48.800;9.002;2022-10-14T13:58:49;1.87;;;1.20;;
211;SDS011;16228;48.800;9.002;2022-10-14T14:01:18;1.07;;;0.87;;
211;SDS011;16228;48.800;9.002;2022-10-14T14:03:49;1.20;;;0.87;;
211;SDS011;16228;48.800;9.002;2022-10-14T14:06:19;1.47;;;0.90;;
211;SDS011;16228;48.800;9.002;2022-10-14T14:08:48;1.73;;;1.20;;
211;SDS011;16228;48.800;9.002;2022-10-14T14:11:19;1.30;;;1.20;;
211;SDS011;16228;48.800;9.002;2022-10-14T14:13:53;2.00;;;1.27;;
211;SDS011;16228;48.800;9.002;2022-10-14T14:16:24;2.77;;;1.20;;
211;SDS011;16228;48.800;9.002;2022-10-14T14:18:55;1.50;;;1.10;;
211;SDS011;16228;48.800;9.002;2022-10-14T14:21:24;1.80;;;1.33;;
211;SDS011;16228;48.800;9.002;2022-10-14T14:23:53;1.93;;;1.27;;
211;SDS011;16228;48.800;9.002;2022-10-14T14:26:23;2.03;;;1.30;;
211;SDS011;16228;48.800;9.002;2022-10-14T14:28:56;1.60;;;1.20;;
211;SDS011;16228;48.800;9.002;2022-10-14T14:31:24;2.50;;;1.23;;
211;SDS011;16228;48.800;9.002;2022-10-14T14:33:55;1.90;;;1.10;;
211;SDS011;16228;48.800;9.002;2022-10-14T14:36:24;2.73;;;1.90;;
211;SDS011;16228;48.800;9.002;2022-10-14T14:38:54;3.13;;;1.93;;
211;SDS011;16228;48.800;9.002;2022-10-14T14:41:23;1.70;;;1.40;;
211;SDS011;16228;48.800;9.002;2022-10-14T14:43:52;1.60;;;1.50;;
211;SDS011;16228;48.800;9.002;2022-10-14T14:46:25;1.97;;;1.60;;
211;SDS011;16228;48.800;9.002;2022-10-14T14:48:57;1.77;;;1.40;;
211;SDS011;16228;48.800;9.002;2022-10-14T14:51:27;2.03;;;1.80;;
211;SDS011;16228;48.800;9.002;2022-10-14T14:53:59;1.57;;;1.30;;
211;SDS011;16228;48.800;9.002;2022-10-14T14:56:28;1.73;;;1.50;;
211;SDS011;16228;48.800;9.002;2022-10-14T14:58:59;3.20;;;2.10;;
211;SDS011;16228;48.800;9.002;2022-10-14T15:01:34;2.00;;;1.90;;
211;SDS011;16228;48.800;9.002;2022-10-14T15:04:01;2.53;;;2.33;;
211;SDS011;16228;48.800;9.002;2022-10-14T15:06:32;2.53;;;1.93;;
211;SDS011;16228;48.800;9.002;2022-10-14T15:09:01;2.37;;;2.17;;
211;SDS011;16228;48.800;9.002;2022-10-14T15:11:47;2.67;;;2.00;;
211;SDS011;16228;48.800;9.002;2022-10-14T15:14:26;2.37;;;2.17;;
211;SDS011;16228;48.800;9.002;2022-10-14T15:16:57;2.07;;;1.80;;
211;SDS011;16228;48.800;9.002;2022-10-14T15:19:28;1.90;;;1.73;;
211;SDS011;16228;48.800;9.002;2022-10-14T15:24:55;1.30;;;1.20;;
211;SDS011;16228;48.800;9.002;2022-10-14T15:27:30;2.23;;;1.40;;
211;SDS011;16228;48.800;9.002;2022-10-14T15:30:26;3.27;;;1.57;;
211;SDS011;16228;48.800;9.002;2022-10-14T15:33:01;1.90;;;1.30;;
211;SDS011;16228;48.800;9.002;2022-10-14T15:35:36;1.63;;;1.30;;
211;SDS011;16228;48.800;9.002;2022-10-14T15:38:06;1.33;;;1.23;;
211;SDS011;16228;48.800;9.002;2022-10-14T15:40:36;1.70;;;1.60;;
211;SDS011;16228;48.800;9.002;2022-10-14T15:43:07;2.20;;;1.30;;
211;SDS011;16228;48.800;9.002;2022-10-14T15:45:37;2.43;;;1.20;;
211;SDS011;16228;48.800;9.002;2022-10-14T15:48:06;1.70;;;1.30;;
211;SDS011;16228;48.800;9.002;2022-10-14T15:50:32;1.20;;;1.10;;
211;SDS011;16228;48.800;9.002;2022-10-14T15:53:03;1.20;;;1.00;;
211;SDS011;16228;48.800;9.002;2022-10-14T15:55:30;1.37;;;1.10;;
211;SDS011;16228;48.800;9.002;2022-10-14T15:58:00;1.40;;;1.20;;